PWSweather.com
Personal Weather Stations
Station Observations

ChardChardGB

Lat: 50.877408, Lon: -2.94964741

Elevation: 341

Station Type: WS3083

http://www.merriott-astro.co.uk/weather/index.htm

High Low Average
Temperature 57.9°F14.4°C 40.5°F4.7°C 52.3°F11.3°C
Dew Point 47.4°F8.6°C 36.3°F2.4°C 43.8°F6.6°C
Winds 18.9 mph 30.4 kmh Calm Calm 9.0 mph S14.5 kmh S
Wind Gusts 26.6 mph42.8 kmh -- 14.0 mph22.5 kmh
Humidity 88% 61% 73%
Pressure 29.74 in1007.1 mb 29.62 in1003.0 mb -
Precipitation 0.17 in4.3 mm - -
Hour Temp Dew Point Humidity Winds Wind Gusts Pressure Precip Precip Rate Daily Precip Total
12:00 AM 40.6°F4.8°C 36.5°F2.5°C 85% Calm Calm -- 29.66 in1004.4 mb 0.00 in0.0 mm 0.00 in0.0 mm 0.00 in0.0 mm
12:10 AM 40.5°F4.7°C 36.3°F2.4°C 85% Calm Calm -- 29.66 in1004.4 mb 0.00 in0.0 mm 0.00 in0.0 mm 0.00 in0.0 mm
12:20 AM 40.6°F4.8°C 36.8°F2.7°C 86% Calm Calm -- 29.66 in1004.4 mb 0.00 in0.0 mm 0.00 in0.0 mm 0.00 in0.0 mm
12:30 AM 40.6°F4.8°C 36.8°F2.7°C 86% Calm Calm -- 29.66 in1004.4 mb 0.00 in0.0 mm 0.00 in0.0 mm 0.00 in0.0 mm
12:40 AM 40.5°F4.7°C 36.6°F2.6°C 86% Calm Calm -- 29.66 in1004.4 mb 0.00 in0.0 mm 0.00 in0.0 mm 0.00 in0.0 mm
12:50 AM 40.5°F4.7°C 36.6°F2.6°C 86% Calm Calm -- 29.66 in1004.4 mb 0.00 in0.0 mm 0.00 in0.0 mm 0.00 in0.0 mm
01:00 AM 40.8°F4.9°C 37.0°F2.8°C 86% Calm Calm -- 29.66 in1004.4 mb 0.00 in0.0 mm 0.00 in0.0 mm 0.00 in0.0 mm
01:10 AM 41.2°F5.1°C 37.6°F3.1°C 87% Calm Calm -- 29.66 in1004.4 mb 0.00 in0.0 mm 0.00 in0.0 mm 0.00 in0.0 mm
01:20 AM 42.1°F5.6°C 38.5°F3.6°C 87% 0.8 mph WSW1.3 kmh WSW 4.5 mph7.2 kmh 29.65 in1004.1 mb 0.00 in0.0 mm 0.00 in0.0 mm 0.00 in0.0 mm
01:30 AM 42.8°F6.0°C 39.5°F4.2°C 88% Calm Calm -- 29.65 in1004.1 mb 0.00 in0.0 mm 0.00 in0.0 mm 0.00 in0.0 mm
01:40 AM 43.7°F6.5°C 40.4°F4.7°C 88% 0.9 mph SSW1.4 kmh SSW 6.0 mph9.7 kmh 29.66 in1004.4 mb 0.01 in0.3 mm 0.06 in1.5 mm 0.01 in0.3 mm
01:50 AM 44.8°F7.1°C 41.4°F5.2°C 88% 1.6 mph SSW2.6 kmh SSW 4.5 mph7.2 kmh 29.66 in1004.4 mb 0.01 in0.3 mm 0.00 in0.0 mm 0.01 in0.3 mm
02:00 AM 46.6°F8.1°C 41.4°F5.2°C 82% 4.0 mph S6.4 kmh S 8.3 mph13.4 kmh 29.67 in1004.7 mb 0.01 in0.3 mm 0.00 in0.0 mm 0.01 in0.3 mm
02:10 AM 48.0°F8.9°C 42.5°F5.8°C 81% 4.4 mph SW7.1 kmh SW 8.3 mph13.4 kmh 29.65 in1004.1 mb 0.01 in0.3 mm 0.00 in0.0 mm 0.01 in0.3 mm
02:20 AM 50.0°F10.0°C 42.4°F5.8°C 75% 10.4 mph SSW16.7 kmh SSW 13.6 mph21.9 kmh 29.65 in1004.1 mb 0.01 in0.3 mm 0.00 in0.0 mm 0.01 in0.3 mm
02:30 AM 50.9°F10.5°C 42.2°F5.7°C 72% 10.9 mph S17.5 kmh S 18.3 mph29.5 kmh 29.66 in1004.4 mb 0.01 in0.3 mm 0.00 in0.0 mm 0.01 in0.3 mm
02:40 AM 51.6°F10.9°C 42.5°F5.8°C 71% 12.9 mph SSW20.8 kmh SSW 19.0 mph30.6 kmh 29.65 in1004.1 mb 0.00 in0.0 mm 0.00 in0.0 mm 0.01 in0.3 mm
02:50 AM 51.8°F11.0°C 42.7°F5.9°C 71% 14.1 mph SSW22.7 kmh SSW 20.6 mph33.2 kmh 29.65 in1004.1 mb 0.00 in0.0 mm 0.00 in0.0 mm 0.01 in0.3 mm
03:00 AM 51.1°F10.6°C 42.7°F5.9°C 73% 13.4 mph S21.6 kmh S 19.7 mph31.7 kmh 29.66 in1004.4 mb 0.02 in0.5 mm 0.02 in0.5 mm 0.04 in1.0 mm
03:10 AM 48.9°F9.4°C 41.7°F5.4°C 76% 12.2 mph SW19.6 kmh SW 18.3 mph29.5 kmh 29.67 in1004.7 mb 0.09 in2.3 mm 0.42 in10.7 mm 0.11 in2.8 mm
03:20 AM 48.0°F8.9°C 41.2°F5.1°C 77% 15.6 mph SW25.1 kmh SW 24.4 mph39.3 kmh 29.67 in1004.7 mb 0.11 in2.8 mm 0.12 in3.0 mm 0.12 in3.0 mm
03:30 AM 47.8°F8.8°C 42.0°F5.6°C 80% 10.7 mph S17.2 kmh S 15.2 mph24.5 kmh 29.67 in1004.7 mb 0.11 in2.8 mm 0.00 in0.0 mm 0.12 in3.0 mm
03:40 AM 47.8°F8.8°C 42.3°F5.7°C 81% 6.1 mph WSW9.8 kmh WSW 7.6 mph12.2 kmh 29.66 in1004.4 mb 0.11 in2.8 mm 0.00 in0.0 mm 0.12 in3.0 mm
03:50 AM 48.0°F8.9°C 42.5°F5.8°C 81% 7.3 mph SW11.7 kmh SW 9.8 mph15.8 kmh 29.67 in1004.7 mb 0.11 in2.8 mm 0.00 in0.0 mm 0.12 in3.0 mm
04:00 AM 48.2°F9.0°C 43.0°F6.1°C 82% 6.1 mph S9.8 kmh S 9.2 mph14.8 kmh 29.67 in1004.7 mb 0.07 in1.8 mm 0.00 in0.0 mm 0.12 in3.0 mm
04:10 AM 48.7°F9.3°C 43.5°F6.4°C 82% 9.9 mph SSW15.9 kmh SSW 15.9 mph25.6 kmh 29.67 in1004.7 mb 0.02 in0.5 mm 0.00 in0.0 mm 0.14 in3.6 mm
04:20 AM 49.3°F9.6°C 44.3°F6.8°C 83% 7.7 mph WSW12.4 kmh WSW 16.8 mph27.0 kmh 29.67 in1004.7 mb 0.04 in1.0 mm 0.12 in3.0 mm 0.15 in3.8 mm
04:30 AM 49.8°F9.9°C 45.2°F7.3°C 84% 13.3 mph SSW21.4 kmh SSW 19.7 mph31.7 kmh 29.67 in1004.7 mb 0.05 in1.3 mm 0.06 in1.5 mm 0.17 in4.3 mm
04:40 AM 49.6°F9.8°C 45.0°F7.2°C 84% 10.2 mph SW16.4 kmh SW 14.5 mph23.3 kmh 29.67 in1004.7 mb 0.05 in1.3 mm 0.00 in0.0 mm 0.17 in4.3 mm
04:50 AM 49.6°F9.8°C 45.0°F7.2°C 84% 10.2 mph S16.4 kmh S 13.6 mph21.9 kmh 29.67 in1004.7 mb 0.05 in1.3 mm 0.00 in0.0 mm 0.17 in4.3 mm
05:00 AM 49.5°F9.7°C 44.5°F6.9°C 83% 8.1 mph S13.0 kmh S 13.0 mph20.9 kmh 29.68 in1005.1 mb 0.05 in1.3 mm 0.00 in0.0 mm 0.17 in4.3 mm
05:10 AM 49.8°F9.9°C 44.9°F7.2°C 83% 9.2 mph SW14.8 kmh SW 14.5 mph23.3 kmh 29.68 in1005.1 mb 0.02 in0.5 mm 0.00 in0.0 mm 0.17 in4.3 mm
05:20 AM 50.4°F10.2°C 45.1°F7.3°C 82% 11.0 mph SSW17.7 kmh SSW 14.5 mph23.3 kmh 29.68 in1005.1 mb 0.01 in0.3 mm 0.00 in0.0 mm 0.17 in4.3 mm
05:30 AM 50.7°F10.4°C 45.1°F7.3°C 81% 7.9 mph SW12.7 kmh SW 13.0 mph20.9 kmh 29.68 in1005.1 mb 0.00 in0.0 mm 0.00 in0.0 mm 0.17 in4.3 mm
05:40 AM 51.1°F10.6°C 45.5°F7.5°C 81% 9.1 mph SSW14.6 kmh SSW 12.1 mph19.5 kmh 29.68 in1005.1 mb 0.00 in0.0 mm 0.00 in0.0 mm 0.17 in4.3 mm
05:50 AM 51.3°F10.7°C 45.6°F7.6°C 81% 9.5 mph S15.3 kmh S 11.4 mph18.3 kmh 29.68 in1005.1 mb 0.00 in0.0 mm 0.00 in0.0 mm 0.17 in4.3 mm
06:00 AM 51.4°F10.8°C 45.8°F7.7°C 81% 9.1 mph SW14.6 kmh SW 17.4 mph28.0 kmh 29.68 in1005.1 mb 0.00 in0.0 mm 0.00 in0.0 mm 0.17 in4.3 mm
06:10 AM 51.8°F11.0°C 46.2°F7.9°C 81% 9.8 mph SW15.8 kmh SW 17.4 mph28.0 kmh 29.69 in1005.4 mb 0.00 in0.0 mm 0.00 in0.0 mm 0.17 in4.3 mm
06:20 AM 52.2°F11.2°C 46.5°F8.1°C 81% 11.2 mph SSW18.0 kmh SSW 15.2 mph24.5 kmh 29.69 in1005.4 mb 0.00 in0.0 mm 0.00 in0.0 mm 0.17 in4.3 mm
06:30 AM 52.5°F11.4°C 46.9°F8.3°C 81% 10.7 mph SSW17.2 kmh SSW 21.3 mph34.3 kmh 29.69 in1005.4 mb 0.00 in0.0 mm 0.00 in0.0 mm 0.17 in4.3 mm
06:40 AM 52.5°F11.4°C 46.5°F8.1°C 80% 10.4 mph S16.7 kmh S 16.8 mph27.0 kmh 29.69 in1005.4 mb 0.00 in0.0 mm 0.00 in0.0 mm 0.17 in4.3 mm
06:50 AM 52.5°F11.4°C 46.5°F8.1°C 80% 7.5 mph S12.1 kmh S 11.4 mph18.3 kmh 29.69 in1005.4 mb 0.00 in0.0 mm 0.00 in0.0 mm 0.17 in4.3 mm
07:00 AM 53.1°F11.7°C 46.7°F8.2°C 79% 13.6 mph SW21.9 kmh SW 20.6 mph33.2 kmh 29.70 in1005.8 mb 0.00 in0.0 mm 0.00 in0.0 mm 0.17 in4.3 mm
07:10 AM 53.4°F11.9°C 47.1°F8.4°C 79% 11.6 mph SSW18.7 kmh SSW 15.9 mph25.6 kmh 29.70 in1005.8 mb 0.00 in0.0 mm 0.00 in0.0 mm 0.17 in4.3 mm
07:20 AM 53.4°F11.9°C 47.4°F8.6°C 80% 9.6 mph SSW15.4 kmh SSW 15.9 mph25.6 kmh 29.70 in1005.8 mb 0.00 in0.0 mm 0.00 in0.0 mm 0.17 in4.3 mm
07:30 AM 53.6°F12.0°C 46.9°F8.3°C 78% 13.0 mph S20.9 kmh S 15.2 mph24.5 kmh 29.71 in1006.1 mb 0.00 in0.0 mm 0.00 in0.0 mm 0.17 in4.3 mm
07:40 AM 53.8°F12.1°C 46.7°F8.2°C 77% 12.7 mph S20.4 kmh S 15.9 mph25.6 kmh 29.71 in1006.1 mb 0.00 in0.0 mm 0.00 in0.0 mm 0.17 in4.3 mm
07:50 AM 53.8°F12.1°C 46.7°F8.2°C 77% 11.8 mph SSW19.0 kmh SSW 15.2 mph24.5 kmh 29.71 in1006.1 mb 0.00 in0.0 mm 0.00 in0.0 mm 0.17 in4.3 mm
08:00 AM 54.0°F12.2°C 46.2°F7.9°C 75% 14.2 mph SW22.9 kmh SW 20.6 mph33.2 kmh 29.71 in1006.1 mb 0.00 in0.0 mm 0.00 in0.0 mm 0.17 in4.3 mm
08:10 AM 54.1°F12.3°C 46.4°F8.0°C 75% 16.3 mph SSW26.2 kmh SSW 20.6 mph33.2 kmh 29.71 in1006.1 mb 0.00 in0.0 mm 0.00 in0.0 mm 0.17 in4.3 mm
08:20 AM 54.0°F12.2°C 46.6°F8.1°C 76% 10.8 mph SW17.4 kmh SW 13.6 mph21.9 kmh 29.71 in1006.1 mb 0.00 in0.0 mm 0.00 in0.0 mm 0.17 in4.3 mm
08:30 AM 54.3°F12.4°C 46.9°F8.3°C 76% 15.2 mph SSW24.5 kmh SSW 19.7 mph31.7 kmh 29.71 in1006.1 mb 0.00 in0.0 mm 0.00 in0.0 mm 0.17 in4.3 mm
08:40 AM 54.3°F12.4°C 46.6°F8.1°C 75% 14.2 mph SSW22.9 kmh SSW 20.6 mph33.2 kmh 29.72 in1006.4 mb 0.00 in0.0 mm 0.00 in0.0 mm 0.17 in4.3 mm
08:50 AM 54.3°F12.4°C 46.2°F7.9°C 74% 12.7 mph SSW20.4 kmh SSW 19.0 mph30.6 kmh 29.72 in1006.4 mb 0.00 in0.0 mm 0.00 in0.0 mm 0.17 in4.3 mm
09:00 AM 54.7°F12.6°C 45.5°F7.5°C 71% 12.7 mph SSW20.4 kmh SSW 17.4 mph28.0 kmh 29.72 in1006.4 mb 0.00 in0.0 mm 0.00 in0.0 mm 0.17 in4.3 mm
09:10 AM 54.9°F12.7°C 45.6°F7.6°C 71% 13.3 mph SW21.4 kmh SW 15.2 mph24.5 kmh 29.72 in1006.4 mb 0.00 in0.0 mm 0.00 in0.0 mm 0.17 in4.3 mm
09:20 AM 55.2°F12.9°C 45.6°F7.6°C 70% 14.8 mph SW23.8 kmh SW 25.1 mph40.4 kmh 29.72 in1006.4 mb 0.00 in0.0 mm 0.00 in0.0 mm 0.17 in4.3 mm
09:30 AM 55.4°F13.0°C 45.8°F7.7°C 70% 18.0 mph SW29.0 kmh SW 25.9 mph41.7 kmh 29.73 in1006.8 mb 0.00 in0.0 mm 0.00 in0.0 mm 0.17 in4.3 mm
09:40 AM 55.4°F13.0°C 45.4°F7.4°C 69% 18.9 mph S30.4 kmh S 26.6 mph42.8 kmh 29.72 in1006.4 mb 0.00 in0.0 mm 0.00 in0.0 mm 0.17 in4.3 mm
09:50 AM 55.2°F12.9°C 45.6°F7.6°C 70% 14.2 mph SSW22.9 kmh SSW 21.3 mph34.3 kmh 29.72 in1006.4 mb 0.00 in0.0 mm 0.00 in0.0 mm 0.17 in4.3 mm
10:00 AM 55.0°F12.8°C 45.1°F7.3°C 69% 17.1 mph SW27.5 kmh SW 24.4 mph39.3 kmh 29.72 in1006.4 mb 0.00 in0.0 mm 0.00 in0.0 mm 0.17 in4.3 mm
10:10 AM 55.2°F12.9°C 45.6°F7.6°C 70% 14.7 mph SSE23.7 kmh SSE 20.6 mph33.2 kmh 29.73 in1006.8 mb 0.00 in0.0 mm 0.00 in0.0 mm 0.17 in4.3 mm
10:20 AM 55.6°F13.1°C 46.0°F7.8°C 70% 11.7 mph SSW18.8 kmh SSW 15.9 mph25.6 kmh 29.73 in1006.8 mb 0.00 in0.0 mm 0.00 in0.0 mm 0.17 in4.3 mm
10:30 AM 55.8°F13.2°C 45.4°F7.4°C 68% 15.7 mph SW25.3 kmh SW 21.3 mph34.3 kmh 29.73 in1006.8 mb 0.00 in0.0 mm 0.00 in0.0 mm 0.17 in4.3 mm
10:40 AM 55.6°F13.1°C 45.2°F7.3°C 68% 12.6 mph SSW20.3 kmh SSW 22.8 mph36.7 kmh 29.74 in1007.1 mb 0.00 in0.0 mm 0.00 in0.0 mm 0.17 in4.3 mm
10:50 AM 55.6°F13.1°C 45.2°F7.3°C 68% 13.0 mph SW20.9 kmh SW 18.3 mph29.5 kmh 29.73 in1006.8 mb 0.00 in0.0 mm 0.00 in0.0 mm 0.17 in4.3 mm
11:00 AM 55.6°F13.1°C 45.2°F7.3°C 68% 12.5 mph S20.1 kmh S 18.3 mph29.5 kmh 29.73 in1006.8 mb 0.00 in0.0 mm 0.00 in0.0 mm 0.17 in4.3 mm
11:10 AM 55.9°F13.3°C 45.5°F7.5°C 68% 15.6 mph SSW25.1 kmh SSW 22.8 mph36.7 kmh 29.73 in1006.8 mb 0.00 in0.0 mm 0.00 in0.0 mm 0.17 in4.3 mm
11:20 AM 55.9°F13.3°C 45.2°F7.3°C 67% 17.0 mph S27.4 kmh S 20.6 mph33.2 kmh 29.73 in1006.8 mb 0.00 in0.0 mm 0.00 in0.0 mm 0.17 in4.3 mm
11:30 AM 55.9°F13.3°C 45.2°F7.3°C 67% 15.5 mph S24.9 kmh S 19.7 mph31.7 kmh 29.73 in1006.8 mb 0.00 in0.0 mm 0.00 in0.0 mm 0.17 in4.3 mm
11:40 AM 55.9°F13.3°C 44.8°F7.1°C 66% 15.5 mph WSW24.9 kmh WSW 21.3 mph34.3 kmh 29.73 in1006.8 mb 0.00 in0.0 mm 0.00 in0.0 mm 0.17 in4.3 mm
11:50 AM 55.8°F13.2°C 45.4°F7.4°C 68% 12.0 mph S19.3 kmh S 19.7 mph31.7 kmh 29.72 in1006.4 mb 0.00 in0.0 mm 0.00 in0.0 mm 0.17 in4.3 mm
12:00 PM 55.8°F13.2°C 45.0°F7.2°C 67% 17.8 mph SSW28.6 kmh SSW 23.5 mph37.8 kmh 29.73 in1006.8 mb 0.00 in0.0 mm 0.00 in0.0 mm 0.17 in4.3 mm
12:10 PM 55.9°F13.3°C 45.5°F7.5°C 68% 12.5 mph WSW20.1 kmh WSW 18.3 mph29.5 kmh 29.73 in1006.8 mb 0.00 in0.0 mm 0.00 in0.0 mm 0.17 in4.3 mm
12:20 PM 55.8°F13.2°C 44.6°F7.0°C 66% 13.8 mph SW22.2 kmh SW 18.3 mph29.5 kmh 29.72 in1006.4 mb 0.00 in0.0 mm 0.00 in0.0 mm 0.17 in4.3 mm
12:30 PM 56.7°F13.7°C 45.0°F7.2°C 65% 12.1 mph SSW19.5 kmh SSW 20.6 mph33.2 kmh 29.71 in1006.1 mb 0.00 in0.0 mm 0.00 in0.0 mm 0.17 in4.3 mm
12:40 PM 56.5°F13.6°C 45.3°F7.4°C 66% 12.2 mph S19.6 kmh S 17.4 mph28.0 kmh 29.71 in1006.1 mb 0.00 in0.0 mm 0.00 in0.0 mm 0.17 in4.3 mm
12:50 PM 56.3°F13.5°C 45.5°F7.5°C 67% 14.8 mph SSW23.8 kmh SSW 21.3 mph34.3 kmh 29.72 in1006.4 mb 0.00 in0.0 mm 0.00 in0.0 mm 0.17 in4.3 mm
01:00 PM 56.8°F13.8°C 45.6°F7.6°C 66% 11.4 mph S18.3 kmh S 15.9 mph25.6 kmh 29.71 in1006.1 mb 0.00 in0.0 mm 0.00 in0.0 mm 0.17 in4.3 mm
01:10 PM 55.9°F13.3°C 44.4°F6.9°C 65% 16.1 mph S25.9 kmh S 23.5 mph37.8 kmh 29.71 in1006.1 mb 0.00 in0.0 mm 0.00 in0.0 mm 0.17 in4.3 mm
01:20 PM 56.1°F13.4°C 45.3°F7.4°C 67% 11.9 mph SE19.2 kmh SE 21.3 mph34.3 kmh 29.72 in1006.4 mb 0.00 in0.0 mm 0.00 in0.0 mm 0.17 in4.3 mm
01:30 PM 56.5°F13.6°C 45.3°F7.4°C 66% 12.0 mph SSW19.3 kmh SSW 19.7 mph31.7 kmh 29.71 in1006.1 mb 0.00 in0.0 mm 0.00 in0.0 mm 0.17 in4.3 mm
01:40 PM 57.9°F14.4°C 45.4°F7.4°C 63% 12.9 mph SW20.8 kmh SW 20.6 mph33.2 kmh 29.70 in1005.8 mb 0.00 in0.0 mm 0.00 in0.0 mm 0.17 in4.3 mm
01:50 PM 56.8°F13.8°C 43.5°F6.4°C 61% 13.8 mph SW22.2 kmh SW 21.3 mph34.3 kmh 29.70 in1005.8 mb 0.00 in0.0 mm 0.00 in0.0 mm 0.17 in4.3 mm
02:00 PM 55.6°F13.1°C 43.2°F6.2°C 63% 12.6 mph WSW20.3 kmh WSW 17.4 mph28.0 kmh 29.71 in1006.1 mb 0.00 in0.0 mm 0.00 in0.0 mm 0.17 in4.3 mm
02:10 PM 56.5°F13.6°C 43.2°F6.2°C 61% 9.3 mph SW15.0 kmh SW 10.7 mph17.2 kmh 29.70 in1005.8 mb 0.00 in0.0 mm 0.00 in0.0 mm 0.17 in4.3 mm
02:20 PM 56.1°F13.4°C 42.9°F6.1°C 61% 9.6 mph SSW15.4 kmh SSW 15.9 mph25.6 kmh 29.70 in1005.8 mb 0.00 in0.0 mm 0.00 in0.0 mm 0.17 in4.3 mm
02:30 PM 55.4°F13.0°C 42.6°F5.9°C 62% 13.6 mph SE21.9 kmh SE 21.3 mph34.3 kmh 29.70 in1005.8 mb 0.00 in0.0 mm 0.00 in0.0 mm 0.17 in4.3 mm
02:40 PM 54.9°F12.7°C 42.5°F5.8°C 63% 10.5 mph SW16.9 kmh SW 15.9 mph25.6 kmh 29.70 in1005.8 mb 0.00 in0.0 mm 0.00 in0.0 mm 0.17 in4.3 mm
02:50 PM 54.5°F12.5°C 42.6°F5.9°C 64% 9.3 mph S15.0 kmh S 13.0 mph20.9 kmh 29.68 in1005.1 mb 0.00 in0.0 mm 0.00 in0.0 mm 0.17 in4.3 mm
03:00 PM 54.3°F12.4°C 44.8°F7.1°C 70% 7.5 mph S12.1 kmh S 13.0 mph20.9 kmh 29.69 in1005.4 mb 0.00 in0.0 mm 0.00 in0.0 mm 0.17 in4.3 mm
03:10 PM 54.1°F12.3°C 44.6°F7.0°C 70% 7.3 mph S11.7 kmh S 9.2 mph14.8 kmh 29.69 in1005.4 mb 0.00 in0.0 mm 0.00 in0.0 mm 0.17 in4.3 mm
03:20 PM 54.1°F12.3°C 44.6°F7.0°C 70% 6.8 mph SSW10.9 kmh SSW 10.7 mph17.2 kmh 29.67 in1004.7 mb 0.00 in0.0 mm 0.00 in0.0 mm 0.17 in4.3 mm
03:30 PM 54.0°F12.2°C 44.8°F7.1°C 71% 6.8 mph S10.9 kmh S 10.7 mph17.2 kmh 29.68 in1005.1 mb 0.00 in0.0 mm 0.00 in0.0 mm 0.17 in4.3 mm
03:40 PM 53.6°F12.0°C 44.4°F6.9°C 71% 6.9 mph S11.1 kmh S 9.8 mph15.8 kmh 29.67 in1004.7 mb 0.00 in0.0 mm 0.00 in0.0 mm 0.17 in4.3 mm
03:50 PM 53.6°F12.0°C 44.4°F6.9°C 71% 6.8 mph SE10.9 kmh SE 9.8 mph15.8 kmh 29.67 in1004.7 mb 0.00 in0.0 mm 0.00 in0.0 mm 0.17 in4.3 mm
04:00 PM 53.4°F11.9°C 44.3°F6.8°C 71% 7.0 mph SSE11.3 kmh SSE 13.6 mph21.9 kmh 29.68 in1005.1 mb 0.00 in0.0 mm 0.00 in0.0 mm 0.17 in4.3 mm
04:10 PM 53.2°F11.8°C 44.1°F6.7°C 71% 7.9 mph W12.7 kmh W 13.0 mph20.9 kmh 29.68 in1005.1 mb 0.00 in0.0 mm 0.00 in0.0 mm 0.17 in4.3 mm
04:20 PM 53.1°F11.7°C 43.9°F6.6°C 71% 7.2 mph ESE11.6 kmh ESE 12.1 mph19.5 kmh 29.68 in1005.1 mb 0.00 in0.0 mm 0.00 in0.0 mm 0.17 in4.3 mm
04:30 PM 52.9°F11.6°C 44.1°F6.7°C 72% 6.3 mph WSW10.1 kmh WSW 9.8 mph15.8 kmh 29.67 in1004.7 mb 0.00 in0.0 mm 0.00 in0.0 mm 0.17 in4.3 mm
04:40 PM 52.7°F11.5°C 44.3°F6.8°C 73% 5.5 mph SE8.9 kmh SE 6.9 mph11.1 kmh 29.67 in1004.7 mb 0.00 in0.0 mm 0.00 in0.0 mm 0.17 in4.3 mm
04:50 PM 52.5°F11.4°C 43.8°F6.6°C 72% 6.9 mph SSE11.1 kmh SSE 13.0 mph20.9 kmh 29.66 in1004.4 mb 0.00 in0.0 mm 0.00 in0.0 mm 0.17 in4.3 mm
05:00 PM 52.5°F11.4°C 43.8°F6.6°C 72% 6.4 mph S10.3 kmh S 11.4 mph18.3 kmh 29.66 in1004.4 mb 0.00 in0.0 mm 0.00 in0.0 mm 0.17 in4.3 mm
05:10 PM 52.3°F11.3°C 43.6°F6.4°C 72% 5.1 mph S8.2 kmh S 9.8 mph15.8 kmh 29.66 in1004.4 mb 0.00 in0.0 mm 0.00 in0.0 mm 0.17 in4.3 mm
05:20 PM 52.3°F11.3°C 43.6°F6.4°C 72% 6.1 mph SW9.8 kmh SW 11.4 mph18.3 kmh 29.65 in1004.1 mb 0.00 in0.0 mm 0.00 in0.0 mm 0.17 in4.3 mm
05:30 PM 52.3°F11.3°C 43.6°F6.4°C 72% 5.4 mph SE8.7 kmh SE 10.7 mph17.2 kmh 29.66 in1004.4 mb 0.00 in0.0 mm 0.00 in0.0 mm 0.17 in4.3 mm
05:40 PM 52.5°F11.4°C 43.4°F6.3°C 71% 5.7 mph SSE9.2 kmh SSE 9.2 mph14.8 kmh 29.66 in1004.4 mb 0.00 in0.0 mm 0.00 in0.0 mm 0.17 in4.3 mm
05:50 PM 52.7°F11.5°C 43.2°F6.2°C 70% 8.1 mph SSE13.0 kmh SSE 16.8 mph27.0 kmh 29.66 in1004.4 mb 0.00 in0.0 mm 0.00 in0.0 mm 0.17 in4.3 mm
06:00 PM 52.9°F11.6°C 42.2°F5.7°C 67% 5.1 mph S8.2 kmh S 9.2 mph14.8 kmh 29.66 in1004.4 mb 0.00 in0.0 mm 0.00 in0.0 mm 0.17 in4.3 mm
06:10 PM 53.1°F11.7°C 42.0°F5.6°C 66% 7.5 mph S12.1 kmh S 9.8 mph15.8 kmh 29.65 in1004.1 mb 0.00 in0.0 mm 0.00 in0.0 mm 0.17 in4.3 mm
06:20 PM 52.9°F11.6°C 42.2°F5.7°C 67% 5.4 mph E8.7 kmh E 6.9 mph11.1 kmh 29.66 in1004.4 mb 0.00 in0.0 mm 0.00 in0.0 mm 0.17 in4.3 mm
06:30 PM 53.1°F11.7°C 42.8°F6.0°C 68% 5.6 mph NW9.0 kmh NW 8.3 mph13.4 kmh 29.66 in1004.4 mb 0.00 in0.0 mm 0.00 in0.0 mm 0.17 in4.3 mm
06:40 PM 53.2°F11.8°C 43.0°F6.1°C 68% 6.7 mph S10.8 kmh S 10.7 mph17.2 kmh 29.65 in1004.1 mb 0.00 in0.0 mm 0.00 in0.0 mm 0.17 in4.3 mm
06:50 PM 53.1°F11.7°C 42.8°F6.0°C 68% 5.5 mph SE8.9 kmh SE 9.2 mph14.8 kmh 29.66 in1004.4 mb 0.00 in0.0 mm 0.00 in0.0 mm 0.17 in4.3 mm
07:00 PM 53.1°F11.7°C 42.8°F6.0°C 68% 7.0 mph ENE11.3 kmh ENE 13.0 mph20.9 kmh 29.66 in1004.4 mb 0.00 in0.0 mm 0.00 in0.0 mm 0.17 in4.3 mm
07:10 PM 52.9°F11.6°C 42.6°F5.9°C 68% 7.2 mph SW11.6 kmh SW 9.8 mph15.8 kmh 29.65 in1004.1 mb 0.00 in0.0 mm 0.00 in0.0 mm 0.17 in4.3 mm
07:20 PM 52.7°F11.5°C 42.4°F5.8°C 68% 6.3 mph SW10.1 kmh SW 10.7 mph17.2 kmh 29.66 in1004.4 mb 0.00 in0.0 mm 0.00 in0.0 mm 0.17 in4.3 mm
07:30 PM 52.9°F11.6°C 42.6°F5.9°C 68% 8.5 mph SSE13.7 kmh SSE 13.6 mph21.9 kmh 29.66 in1004.4 mb 0.00 in0.0 mm 0.00 in0.0 mm 0.17 in4.3 mm
07:40 PM 52.7°F11.5°C 42.1°F5.6°C 67% 4.6 mph NNE7.4 kmh NNE 11.4 mph18.3 kmh 29.65 in1004.1 mb 0.00 in0.0 mm 0.00 in0.0 mm 0.17 in4.3 mm
07:50 PM 52.5°F11.4°C 42.7°F5.9°C 69% 5.2 mph SE8.4 kmh SE 8.3 mph13.4 kmh 29.65 in1004.1 mb 0.00 in0.0 mm 0.00 in0.0 mm 0.17 in4.3 mm
08:00 PM 52.9°F11.6°C 42.6°F5.9°C 68% 7.6 mph ESE12.2 kmh ESE 13.0 mph20.9 kmh 29.65 in1004.1 mb 0.00 in0.0 mm 0.00 in0.0 mm 0.17 in4.3 mm
08:10 PM 53.2°F11.8°C 42.6°F5.9°C 67% 5.7 mph S9.2 kmh S 9.2 mph14.8 kmh 29.66 in1004.4 mb 0.00 in0.0 mm 0.00 in0.0 mm 0.17 in4.3 mm
08:20 PM 53.4°F11.9°C 42.7°F5.9°C 67% 6.7 mph SE10.8 kmh SE 12.1 mph19.5 kmh 29.66 in1004.4 mb 0.00 in0.0 mm 0.00 in0.0 mm 0.17 in4.3 mm
08:30 PM 53.8°F12.1°C 42.7°F5.9°C 66% 10.2 mph SE16.4 kmh SE 14.5 mph23.3 kmh 29.66 in1004.4 mb 0.00 in0.0 mm 0.00 in0.0 mm 0.17 in4.3 mm
08:40 PM 53.8°F12.1°C 42.7°F5.9°C 66% 8.3 mph SE13.4 kmh SE 13.6 mph21.9 kmh 29.65 in1004.1 mb 0.00 in0.0 mm 0.00 in0.0 mm 0.17 in4.3 mm
08:50 PM 53.6°F12.0°C 42.9°F6.1°C 67% 7.6 mph SSE12.2 kmh SSE 9.8 mph15.8 kmh 29.65 in1004.1 mb 0.00 in0.0 mm 0.00 in0.0 mm 0.17 in4.3 mm
09:00 PM 53.6°F12.0°C 43.3°F6.3°C 68% 6.6 mph SE10.6 kmh SE 10.7 mph17.2 kmh 29.65 in1004.1 mb 0.00 in0.0 mm 0.00 in0.0 mm 0.17 in4.3 mm
09:10 PM 53.6°F12.0°C 44.1°F6.7°C 70% 6.9 mph S11.1 kmh S 10.7 mph17.2 kmh 29.64 in1003.7 mb 0.00 in0.0 mm 0.00 in0.0 mm 0.17 in4.3 mm
09:20 PM 53.6°F12.0°C 44.1°F6.7°C 70% 7.5 mph SW12.1 kmh SW 12.1 mph19.5 kmh 29.65 in1004.1 mb 0.00 in0.0 mm 0.00 in0.0 mm 0.17 in4.3 mm
09:30 PM 53.6°F12.0°C 44.1°F6.7°C 70% 8.6 mph N13.8 kmh N 12.1 mph19.5 kmh 29.65 in1004.1 mb 0.00 in0.0 mm 0.00 in0.0 mm 0.17 in4.3 mm
09:40 PM 53.6°F12.0°C 44.4°F6.9°C 71% 8.2 mph SE13.2 kmh SE 13.0 mph20.9 kmh 29.64 in1003.7 mb 0.00 in0.0 mm 0.00 in0.0 mm 0.17 in4.3 mm
09:50 PM 53.4°F11.9°C 44.3°F6.8°C 71% 8.2 mph NE13.2 kmh NE 13.6 mph21.9 kmh 29.64 in1003.7 mb 0.00 in0.0 mm 0.00 in0.0 mm 0.17 in4.3 mm
10:00 PM 53.2°F11.8°C 44.5°F6.9°C 72% 5.7 mph S9.2 kmh S 9.8 mph15.8 kmh 29.64 in1003.7 mb 0.00 in0.0 mm 0.00 in0.0 mm 0.17 in4.3 mm
10:10 PM 53.2°F11.8°C 44.5°F6.9°C 72% 7.6 mph SSE12.2 kmh SSE 13.6 mph21.9 kmh 29.64 in1003.7 mb 0.00 in0.0 mm 0.00 in0.0 mm 0.17 in4.3 mm
10:20 PM 53.2°F11.8°C 44.5°F6.9°C 72% 7.7 mph SSE12.4 kmh SSE 13.0 mph20.9 kmh 29.64 in1003.7 mb 0.00 in0.0 mm 0.00 in0.0 mm 0.17 in4.3 mm
10:30 PM 53.2°F11.8°C 44.1°F6.7°C 71% 7.4 mph SSE11.9 kmh SSE 12.1 mph19.5 kmh 29.63 in1003.4 mb 0.00 in0.0 mm 0.00 in0.0 mm 0.17 in4.3 mm
10:40 PM 53.2°F11.8°C 44.5°F6.9°C 72% 6.3 mph S10.1 kmh S 9.2 mph14.8 kmh 29.62 in1003.0 mb 0.00 in0.0 mm 0.00 in0.0 mm 0.17 in4.3 mm
10:50 PM 53.2°F11.8°C 44.5°F6.9°C 72% 6.2 mph SE10.0 kmh SE 10.7 mph17.2 kmh 29.62 in1003.0 mb 0.00 in0.0 mm 0.00 in0.0 mm 0.17 in4.3 mm
11:00 PM 53.1°F11.7°C 44.3°F6.8°C 72% 4.7 mph WSW7.6 kmh WSW 7.6 mph12.2 kmh 29.62 in1003.0 mb 0.00 in0.0 mm 0.00 in0.0 mm 0.17 in4.3 mm
11:10 PM 53.1°F11.7°C 43.9°F6.6°C 71% 6.0 mph WSW9.7 kmh WSW 12.1 mph19.5 kmh 29.63 in1003.4 mb 0.00 in0.0 mm 0.00 in0.0 mm 0.17 in4.3 mm
11:20 PM 53.1°F11.7°C 43.9°F6.6°C 71% 8.7 mph SW14.0 kmh SW 11.4 mph18.3 kmh 29.62 in1003.0 mb 0.00 in0.0 mm 0.00 in0.0 mm 0.17 in4.3 mm
11:30 PM 53.1°F11.7°C 43.9°F6.6°C 71% 7.8 mph S12.6 kmh S 11.4 mph18.3 kmh 29.62 in1003.0 mb 0.00 in0.0 mm 0.00 in0.0 mm 0.17 in4.3 mm
11:40 PM 52.9°F11.6°C 44.1°F6.7°C 72% 5.8 mph W9.3 kmh W 9.2 mph14.8 kmh 29.62 in1003.0 mb 0.00 in0.0 mm 0.00 in0.0 mm 0.17 in4.3 mm
11:50 PM 52.9°F11.6°C 44.1°F6.7°C 72% 4.2 mph SE6.8 kmh SE 8.3 mph13.4 kmh 29.62 in1003.0 mb 0.00 in0.0 mm 0.00 in0.0 mm 0.17 in4.3 mm